Time;durP1;ratioP1;P1;durP2;ratioP2;P2;SDS_P1;SDS_P2;PMS_P1;PMS_P2;Temp;Humidity;BMP_temperature;BMP_pressure;BME280_temperature;BME280_humidity;BME280_pressure;Samples;Min_cycle;Max_cycle;Signal;HPM_P1;HPM_P2
2022/11/19 00:00:38;;;;;;;19.90;12.73;;;-0.60;99.90;;;;;;5072199;28;20228;-73
2022/11/19 00:03:30;;;;;;;19.97;12.97;;;-0.50;99.90;;;;;;5071887;28;20223;-73
2022/11/19 00:06:20;;;;;;;18.67;11.43;;;-0.40;99.90;;;;;;5059803;28;20590;-73
2022/11/19 00:09:13;;;;;;;20.73;12.03;;;-0.30;99.90;;;;;;5067969;28;20216;-73
2022/11/19 00:15:08;;;;;;;18.13;11.93;;;-0.60;99.90;;;;;;5071063;28;20859;-73
2022/11/19 00:17:59;;;;;;;18.30;12.40;;;-0.70;99.90;;;;;;5060674;28;20223;-71
2022/11/19 00:20:49;;;;;;;18.97;12.23;;;-0.70;99.90;;;;;;5075168;28;20216;-72
2022/11/19 00:23:39;;;;;;;18.77;11.80;;;-0.50;99.90;;;;;;5072978;28;20781;-73
2022/11/19 00:26:27;;;;;;;16.20;10.60;;;-0.60;99.90;;;;;;5061003;28;20235;-72
2022/11/19 00:29:16;;;;;;;23.33;12.30;;;-0.60;99.90;;;;;;5059871;28;20289;-68
2022/11/19 00:32:05;;;;;;;19.07;11.43;;;-0.70;99.90;;;;;;5054424;28;20229;-70
2022/11/19 00:34:55;;;;;;;18.90;11.43;;;-0.80;99.90;;;;;;5058117;28;20277;-72
2022/11/19 00:37:44;;;;;;;17.60;10.93;;;-0.80;99.90;;;;;;5050892;28;20248;-73
2022/11/19 00:40:32;;;;;;;21.97;12.33;;;-0.70;99.90;;;;;;5050984;28;20698;-73
2022/11/19 00:46:30;;;;;;;19.60;12.60;;;-0.80;99.90;;;;;;5028065;28;20239;-74
2022/11/19 00:49:20;;;;;;;18.50;11.17;;;-1.00;99.90;;;;;;5052747;28;20231;-74
2022/11/19 00:52:10;;;;;;;20.27;12.20;;;-1.00;99.90;;;;;;5050091;28;20228;-74
2022/11/19 00:54:59;;;;;;;20.03;12.00;;;-0.80;99.90;;;;;;5050855;28;20216;-75
2022/11/19 00:57:47;;;;;;;19.07;12.33;;;-0.70;99.90;;;;;;5071839;28;20232;-75
2022/11/19 01:00:37;;;;;;;20.80;11.93;;;-0.70;99.90;;;;;;5072610;28;20224;-75
2022/11/19 01:03:26;;;;;;;20.00;12.00;;;-0.50;99.90;;;;;;5055939;28;20314;-73
2022/11/19 01:06:17;;;;;;;22.20;12.40;;;-0.70;99.90;;;;;;5060275;28;21730;-73
2022/11/19 01:09:08;;;;;;;23.43;12.73;;;-0.60;99.90;;;;;;5055852;28;20307;-74
2022/11/19 01:11:59;;;;;;;22.17;12.80;;;-0.60;99.90;;;;;;5073744;28;20220;-75
2022/11/19 01:14:47;;;;;;;19.17;12.60;;;-0.60;99.90;;;;;;5046747;28;20235;-74
2022/11/19 01:17:36;;;;;;;19.53;11.97;;;-0.50;99.90;;;;;;5058986;28;20254;-73
2022/11/19 01:20:24;;;;;;;18.87;12.07;;;-0.80;99.90;;;;;;5060866;28;20231;-74
2022/11/19 01:23:15;;;;;;;19.90;13.37;;;-0.60;99.90;;;;;;5061440;28;20208;-75
2022/11/19 01:26:08;;;;;;;20.67;13.07;;;-0.50;99.90;;;;;;5076938;28;20380;-74
2022/11/19 01:28:58;;;;;;;22.30;13.17;;;-0.40;99.90;;;;;;5073151;28;20731;-72
2022/11/19 01:31:48;;;;;;;22.93;14.10;;;-0.50;99.90;;;;;;5057995;28;20236;-72
2022/11/19 01:34:36;;;;;;;23.83;14.73;;;-0.40;99.90;;;;;;5061796;28;20278;-72
2022/11/19 01:37:27;;;;;;;21.47;14.33;;;-0.30;99.90;;;;;;5059608;28;20318;-74
2022/11/19 01:40:18;;;;;;;21.50;13.87;;;-0.20;99.90;;;;;;5075380;28;20227;-73
2022/11/19 01:43:15;;;;;;;21.40;12.83;;;0.00;99.90;;;;;;5056364;28;20219;-72
2022/11/19 01:46:07;;;;;;;20.13;12.90;;;0.00;99.90;;;;;;5067284;28;20358;-73
2022/11/19 01:49:04;;;;;;;22.00;13.73;;;-0.20;99.90;;;;;;5075585;28;20215;-73
2022/11/19 01:52:00;;;;;;;20.33;13.10;;;-0.10;99.90;;;;;;5063623;28;20220;-73
2022/11/19 01:54:54;;;;;;;18.37;12.47;;;0.00;99.90;;;;;;5057126;28;20223;-73
2022/11/19 01:57:49;;;;;;;18.27;12.43;;;0.00;99.90;;;;;;5053086;28;20230;-74
2022/11/19 02:00:41;;;;;;;17.80;12.00;;;0.20;99.90;;;;;;5064498;28;20228;-72
2022/11/19 02:03:37;;;;;;;19.20;11.60;;;0.20;99.90;;;;;;5057954;28;20235;-72
2022/11/19 02:06:36;;;;;;;17.93;11.27;;;-0.10;99.90;;;;;;5050429;28;20223;-73
2022/11/19 02:09:30;;;;;;;19.80;12.53;;;0.00;99.90;;;;;;5052257;28;20834;-73
2022/11/19 02:12:30;;;;;;;19.03;12.17;;;0.00;99.90;;;;;;5070426;28;20315;-73
2022/11/19 02:15:35;;;;;;;18.77;12.23;;;-0.30;99.90;;;;;;5070578;28;20220;-73
2022/11/19 02:18:48;;;;;;;19.47;12.57;;;-0.20;99.90;;;;;;5070921;28;20239;-73
2022/11/19 02:21:56;;;;;;;19.40;12.23;;;-0.20;99.90;;;;;;5070017;28;20215;-74
2022/11/19 02:24:57;;;;;;;18.50;11.53;;;0.00;99.90;;;;;;5050244;28;20307;-73
2022/11/19 02:28:14;;;;;;;16.30;10.83;;;-0.10;99.90;;;;;;5049454;28;20247;-73
2022/11/19 02:31:30;;;;;;;20.40;12.27;;;-0.20;99.90;;;;;;5056235;28;20309;-73
2022/11/19 02:34:34;;;;;;;17.40;11.63;;;0.00;99.90;;;;;;5050166;28;20251;-72
2022/11/19 02:37:33;;;;;;;15.97;10.77;;;-0.30;99.90;;;;;;5053527;28;20379;-72
2022/11/19 02:40:28;;;;;;;24.37;15.40;;;-0.30;99.90;;;;;;5054425;28;20243;-72
2022/11/19 02:43:20;;;;;;;23.93;14.40;;;-0.30;99.90;;;;;;5049654;28;20725;-72
2022/11/19 02:46:17;;;;;;;19.47;13.07;;;-0.10;99.90;;;;;;5039534;28;20228;-73
2022/11/19 02:49:17;;;;;;;20.60;13.03;;;0.00;99.90;;;;;;5052148;28;20220;-72
2022/11/19 02:52:12;;;;;;;20.47;12.03;;;0.20;99.90;;;;;;5053378;28;20212;-74
2022/11/19 02:55:11;;;;;;;18.77;11.93;;;0.20;99.90;;;;;;5036998;28;20440;-73
2022/11/19 03:04:28;;;;;;;19.07;11.63;;;0.00;99.90;;;;;;5037270;28;20217;-73
2022/11/19 03:04:41;;;;;;;19.87;12.00;;;-0.30;99.90;;;;;;5053150;28;20916;-74
2022/11/19 03:07:42;;;;;;;16.70;11.43;;;0.00;99.90;;;;;;5049430;28;20235;-73
2022/11/19 03:10:44;;;;;;;19.10;11.93;;;-0.10;99.90;;;;;;5033095;28;20234;-74
2022/11/19 03:17:35;;;;;;;16.73;11.00;;;0.00;99.90;;;;;;5013224;28;20216;-75
2022/11/19 03:20:29;;;;;;;17.87;11.67;;;-0.20;99.90;;;;;;5039646;28;20307;-74
2022/11/19 03:23:31;;;;;;;17.33;11.57;;;-0.50;99.90;;;;;;5041081;28;20224;-74
2022/11/19 03:26:35;;;;;;;17.77;10.37;;;-0.50;99.90;;;;;;5040243;28;20228;-73
2022/11/19 03:29:37;;;;;;;15.07;10.13;;;-0.40;99.90;;;;;;5059922;28;20686;-73
2022/11/19 03:36:31;;;;;;;19.53;10.57;;;-0.20;99.90;;;;;;5062172;28;20247;-74
2022/11/19 03:39:30;;;;;;;12.63;8.60;;;-0.10;99.90;;;;;;5077087;28;20211;-74
2022/11/19 03:42:22;;;;;;;14.03;9.93;;;-0.20;99.90;;;;;;5075890;28;20224;-75
2022/11/19 03:45:16;;;;;;;14.47;9.87;;;-0.10;99.90;;;;;;5061204;28;20254;-74
2022/11/19 03:48:36;;;;;;;17.60;10.53;;;-0.10;99.90;;;;;;5064954;28;20219;-75
2022/11/19 03:51:46;;;;;;;17.37;11.20;;;-0.10;99.90;;;;;;5080366;28;20223;-74
2022/11/19 03:54:52;;;;;;;14.63;10.37;;;0.00;99.90;;;;;;5078324;28;20284;-72
2022/11/19 03:58:09;;;;;;;18.97;10.50;;;0.00;99.90;;;;;;5081709;28;20219;-73
2022/11/19 04:01:07;;;;;;;15.73;11.07;;;0.00;99.90;;;;;;5073021;28;20282;-74
2022/11/19 04:07:29;;;;;;;18.03;11.47;;;0.20;99.90;;;;;;5063283;28;20223;-72
2022/11/19 04:13:40;;;;;;;18.97;12.27;;;0.40;99.90;;;;;;5077584;28;20219;-75
2022/11/19 04:16:38;;;;;;;20.07;13.20;;;0.10;99.90;;;;;;5076405;28;20882;-74
2022/11/19 04:19:46;;;;;;;19.60;12.73;;;0.30;99.90;;;;;;5070903;28;20309;-73
2022/11/19 04:23:19;;;;;;;19.70;12.70;;;-0.10;99.90;;;;;;5075922;28;20231;-74
2022/11/19 04:29:21;;;;;;;19.67;12.67;;;0.20;99.90;;;;;;5067564;28;20238;-74
2022/11/19 04:32:10;;;;;;;19.77;13.13;;;0.30;99.90;;;;;;5060881;28;20369;-74
2022/11/19 04:35:00;;;;;;;18.73;12.17;;;0.40;99.90;;;;;;5070330;28;20621;-73
2022/11/19 04:37:48;;;;;;;21.40;13.47;;;0.10;99.90;;;;;;5060712;28;20227;-74
2022/11/19 04:40:37;;;;;;;20.00;13.40;;;0.00;99.90;;;;;;5075747;28;20744;-73
2022/11/19 04:43:26;;;;;;;22.30;12.97;;;0.10;99.90;;;;;;5074385;28;20227;-75
2022/11/19 04:46:14;;;;;;;23.33;13.97;;;0.10;99.90;;;;;;5061627;28;20235;-74
2022/11/19 04:49:03;;;;;;;21.60;13.60;;;-0.10;99.90;;;;;;5062502;28;20338;-74
2022/11/19 04:51:53;;;;;;;22.90;14.50;;;-0.40;99.90;;;;;;5059244;28;20358;-73
2022/11/19 04:54:43;;;;;;;22.60;14.60;;;0.00;99.90;;;;;;5070206;28;20238;-75
2022/11/19 04:57:31;;;;;;;19.27;13.43;;;0.10;99.90;;;;;;5072128;28;20301;-75
2022/11/19 05:00:20;;;;;;;20.40;14.10;;;0.10;99.90;;;;;;5070027;28;20301;-73
2022/11/19 05:03:08;;;;;;;25.00;14.87;;;0.00;99.90;;;;;;5056788;28;20227;-74
2022/11/19 05:05:57;;;;;;;21.73;14.30;;;0.00;99.90;;;;;;5070761;28;20232;-75
2022/11/19 05:08:47;;;;;;;21.73;13.90;;;0.10;99.90;;;;;;5062888;28;20251;-73
2022/11/19 05:11:35;;;;;;;21.50;13.70;;;0.10;99.90;;;;;;5059296;28;20318;-73
2022/11/19 05:14:24;;;;;;;18.83;12.80;;;0.20;99.90;;;;;;5048534;28;20223;-73
2022/11/19 05:17:17;;;;;;;19.77;13.17;;;-0.30;99.90;;;;;;5049424;28;20380;-73
2022/11/19 05:20:08;;;;;;;21.00;12.57;;;-0.10;99.90;;;;;;5069293;28;20270;-73
2022/11/19 05:22:56;;;;;;;19.67;13.40;;;-0.40;99.90;;;;;;5057037;28;20231;-74
2022/11/19 05:25:46;;;;;;;20.50;13.37;;;-0.20;99.90;;;;;;5055688;28;20317;-74
2022/11/19 05:28:38;;;;;;;22.20;13.47;;;-0.20;99.90;;;;;;5058679;28;20238;-74
2022/11/19 05:31:27;;;;;;;21.80;13.53;;;0.00;99.90;;;;;;5062072;28;20239;-72
2022/11/19 05:34:16;;;;;;;19.97;12.97;;;0.00;99.90;;;;;;5052784;28;20227;-72
2022/11/19 05:37:05;;;;;;;18.33;11.77;;;0.00;99.90;;;;;;5054525;28;20251;-72
2022/11/19 05:39:53;;;;;;;19.00;12.43;;;-0.20;99.90;;;;;;5058512;28;20710;-72
2022/11/19 05:42:43;;;;;;;19.20;12.90;;;-0.20;99.90;;;;;;5068051;28;20232;-73
2022/11/19 05:45:31;;;;;;;19.93;12.97;;;0.00;99.90;;;;;;5063226;28;20279;-73
2022/11/19 05:48:20;;;;;;;22.37;13.80;;;0.10;99.90;;;;;;5059271;28;20667;-73
2022/11/19 05:51:12;;;;;;;22.87;14.57;;;0.10;99.90;;;;;;5058653;28;20224;-73
2022/11/19 05:54:01;;;;;;;22.00;13.87;;;0.20;99.90;;;;;;5066557;28;20673;-73
2022/11/19 05:56:49;;;;;;;22.93;13.27;;;0.20;99.90;;;;;;5053890;28;20212;-73
2022/11/19 05:59:43;;;;;;;19.47;13.00;;;0.00;99.90;;;;;;5070724;28;20353;-74
2022/11/19 06:02:31;;;;;;;23.27;13.67;;;0.00;99.90;;;;;;5072917;28;20674;-74
2022/11/19 06:05:20;;;;;;;20.60;12.93;;;0.00;99.90;;;;;;5067724;28;20223;-72
2022/11/19 06:08:08;;;;;;;21.73;13.80;;;0.10;99.90;;;;;;5059327;28;20314;-73
2022/11/19 06:10:57;;;;;;;23.53;15.87;;;0.20;99.90;;;;;;5065678;28;20234;-73
2022/11/19 06:13:45;;;;;;;24.50;14.43;;;0.10;99.90;;;;;;5048858;28;20239;-72
2022/11/19 06:16:35;;;;;;;25.30;16.07;;;0.00;99.90;;;;;;5066974;28;20250;-73
2022/11/19 06:19:25;;;;;;;25.53;14.93;;;0.10;99.90;;;;;;5059138;28;20227;-73
2022/11/19 06:22:13;;;;;;;24.80;14.73;;;0.20;99.90;;;;;;5054978;28;20215;-72
2022/11/19 06:25:02;;;;;;;25.10;14.93;;;0.00;99.90;;;;;;5068574;28;20288;-73
2022/11/19 06:27:50;;;;;;;24.63;15.37;;;0.10;99.90;;;;;;5076874;28;20328;-73
2022/11/19 06:30:39;;;;;;;24.23;15.53;;;0.00;99.90;;;;;;5064314;28;20235;-73
2022/11/19 06:33:29;;;;;;;26.50;15.97;;;0.10;99.90;;;;;;5059325;28;20238;-72
2022/11/19 06:36:18;;;;;;;28.83;16.30;;;0.30;99.90;;;;;;5058825;28;20220;-73
2022/11/19 06:39:06;;;;;;;22.93;15.33;;;0.30;99.90;;;;;;5060900;28;20223;-73
2022/11/19 06:42:34;;;;;;;24.33;15.80;;;0.40;99.90;;;;;;5061939;28;22129;-73
2022/11/19 06:45:04;;;;;;;24.73;15.33;;;0.10;99.90;;;;;;5062003;28;20222;-73
2022/11/19 06:47:53;;;;;;;25.07;15.83;;;0.00;99.90;;;;;;5071787;28;20404;-73
2022/11/19 06:50:45;;;;;;;25.93;16.10;;;0.00;99.90;;;;;;5070075;28;20297;-73
2022/11/19 06:53:33;;;;;;;25.87;16.63;;;-0.10;99.90;;;;;;5077714;28;20241;-73
2022/11/19 06:56:22;;;;;;;23.07;15.73;;;0.00;99.90;;;;;;5069170;28;20227;-72
2022/11/19 06:59:10;;;;;;;26.07;16.03;;;0.10;99.90;;;;;;5060051;28;20231;-73
2022/11/19 07:01:58;;;;;;;29.40;16.43;;;0.00;99.90;;;;;;5075752;28;20231;-73
2022/11/19 07:04:47;;;;;;;25.53;16.17;;;0.20;99.90;;;;;;5060893;28;20227;-73
2022/11/19 07:07:37;;;;;;;27.83;16.73;;;0.30;99.90;;;;;;5076397;28;20478;-73
2022/11/19 07:10:26;;;;;;;30.40;16.73;;;0.30;99.90;;;;;;5063010;28;20259;-71
2022/11/19 07:13:14;;;;;;;28.83;18.10;;;0.50;99.90;;;;;;5071548;28;20220;-73
2022/11/19 07:16:03;;;;;;;29.93;18.70;;;0.50;99.90;;;;;;5054861;28;20215;-73
2022/11/19 07:18:52;;;;;;;29.83;18.87;;;0.50;99.90;;;;;;5074417;28;20230;-72
2022/11/19 07:21:40;;;;;;;30.03;19.63;;;0.40;99.90;;;;;;5061884;28;20311;-73
2022/11/19 07:24:30;;;;;;;32.40;18.97;;;0.40;99.90;;;;;;5066074;28;20224;-74
2022/11/19 07:27:19;;;;;;;33.27;20.80;;;0.40;99.90;;;;;;5074301;28;20335;-73
2022/11/19 07:30:09;;;;;;;32.37;20.47;;;0.40;99.90;;;;;;5058627;28;20232;-73
2022/11/19 07:32:58;;;;;;;33.90;21.07;;;0.70;99.90;;;;;;5065091;28;20259;-75
2022/11/19 07:35:47;;;;;;;32.77;20.73;;;0.60;99.90;;;;;;5055575;28;20323;-73
2022/11/19 07:38:36;;;;;;;31.20;19.77;;;0.60;99.90;;;;;;5060528;28;20260;-73
2022/11/19 07:44:32;;;;;;;35.20;20.13;;;0.60;99.90;;;;;;5039168;28;20216;-74
2022/11/19 07:47:20;;;;;;;30.30;19.90;;;0.80;99.90;;;;;;5055534;28;20231;-73
2022/11/19 07:50:10;;;;;;;34.27;19.63;;;0.50;99.90;;;;;;5041691;28;20561;-74
2022/11/19 07:52:58;;;;;;;32.37;20.37;;;0.50;99.90;;;;;;5053612;28;20240;-74
2022/11/19 07:55:47;;;;;;;34.63;21.80;;;0.50;99.90;;;;;;5053626;28;20973;-72
2022/11/19 07:58:37;;;;;;;31.83;20.20;;;0.50;99.90;;;;;;5048050;28;20311;-72
2022/11/19 08:01:26;;;;;;;32.80;20.80;;;0.50;99.90;;;;;;5056158;28;20307;-73
2022/11/19 08:04:15;;;;;;;36.70;21.50;;;0.40;99.90;;;;;;5058086;28;20228;-73
2022/11/19 08:07:04;;;;;;;33.57;20.43;;;0.20;99.90;;;;;;5040019;28;20236;-74
2022/11/19 08:09:53;;;;;;;36.60;23.07;;;0.20;99.90;;;;;;5057944;28;20223;-72
2022/11/19 08:13:01;;;;;;;32.20;20.57;;;0.50;99.90;;;;;;5043306;28;20235;-73
2022/11/19 08:15:51;;;;;;;34.03;20.67;;;0.40;99.90;;;;;;5059500;28;20223;-73
2022/11/19 08:18:39;;;;;;;31.43;19.63;;;0.50;99.90;;;;;;5042118;28;20251;-74
2022/11/19 08:21:28;;;;;;;28.87;19.03;;;0.50;99.90;;;;;;5053875;28;20225;-73
2022/11/19 08:24:19;;;;;;;30.10;19.83;;;0.50;99.90;;;;;;5057904;28;20240;-74
2022/11/19 08:27:08;;;;;;;30.83;19.63;;;0.70;99.90;;;;;;5055343;28;20711;-73
2022/11/19 08:29:56;;;;;;;31.40;19.30;;;0.80;99.90;;;;;;5059255;28;20224;-75
2022/11/19 08:32:47;;;;;;;31.93;20.03;;;1.20;99.90;;;;;;5051058;28;20224;-73
2022/11/19 08:35:35;;;;;;;30.57;19.10;;;1.30;99.90;;;;;;5048897;28;20263;-73
2022/11/19 08:38:25;;;;;;;29.30;18.17;;;1.60;99.90;;;;;;5050262;28;20315;-70
2022/11/19 08:44:19;;;;;;;27.40;16.53;;;1.40;99.90;;;;;;5039403;28;20706;-72
2022/11/19 08:47:09;;;;;;;26.90;17.03;;;1.50;99.90;;;;;;5036197;28;20362;-74
2022/11/19 08:49:59;;;;;;;28.93;17.80;;;1.50;99.90;;;;;;5053714;28;20225;-74
2022/11/19 08:52:54;;;;;;;28.57;18.00;;;1.20;99.90;;;;;;5035328;28;20232;-74
2022/11/19 08:55:42;;;;;;;28.83;18.90;;;1.30;99.90;;;;;;5050020;28;20774;-74
2022/11/19 08:58:31;;;;;;;27.30;17.77;;;1.60;99.90;;;;;;5051074;28;20332;-74
2022/11/19 09:01:20;;;;;;;28.53;17.33;;;1.40;99.90;;;;;;5034470;28;20217;-73
2022/11/19 09:04:09;;;;;;;33.23;16.67;;;1.60;99.90;;;;;;5036034;28;20231;-73
2022/11/19 09:06:59;;;;;;;26.93;16.47;;;1.60;99.90;;;;;;5038068;28;20220;-73
2022/11/19 09:09:47;;;;;;;24.50;16.37;;;1.70;99.90;;;;;;5049542;28;20253;-73
2022/11/19 09:12:36;;;;;;;25.43;16.50;;;1.60;99.90;;;;;;5036268;28;20594;-73
2022/11/19 09:15:24;;;;;;;27.23;16.43;;;1.50;99.90;;;;;;5049977;28;20390;-73
2022/11/19 09:18:13;;;;;;;24.87;16.03;;;1.60;99.90;;;;;;5056419;28;20221;-70
2022/11/19 09:21:02;;;;;;;27.00;17.37;;;1.70;99.90;;;;;;5044053;28;20227;-74
2022/11/19 09:23:52;;;;;;;24.70;15.57;;;1.40;99.90;;;;;;5054215;28;20323;-73
2022/11/19 09:26:40;;;;;;;27.47;15.77;;;1.40;99.90;;;;;;5053844;28;20721;-73
2022/11/19 09:29:29;;;;;;;24.47;15.83;;;1.60;99.90;;;;;;5053300;28;21083;-73
2022/11/19 09:32:17;;;;;;;23.90;15.27;;;1.60;99.90;;;;;;5041632;28;21061;-73
2022/11/19 09:35:13;;;;;;;26.33;17.17;;;1.60;99.90;;;;;;5071989;28;20220;-72
2022/11/19 09:38:01;;;;;;;23.67;15.13;;;1.70;99.90;;;;;;5060306;28;20311;-73
2022/11/19 09:40:53;;;;;;;25.23;16.13;;;1.60;99.90;;;;;;5059625;28;20306;-73
2022/11/19 09:43:51;;;;;;;25.43;16.33;;;1.50;99.90;;;;;;5061990;28;20225;-73
2022/11/19 09:46:47;;;;;;;28.40;16.13;;;1.40;99.90;;;;;;5059564;28;20247;-74
2022/11/19 09:49:39;;;;;;;24.90;16.17;;;1.20;99.90;;;;;;5069961;28;20227;-72
2022/11/19 09:52:32;;;;;;;26.10;16.37;;;1.10;99.90;;;;;;5078168;28;20246;-73
2022/11/19 09:57:02;;;;;;;24.97;16.47;;;1.20;99.90;;;;;;5069323;27;20723;-73
2022/11/19 09:59:57;;;;;;;23.00;14.43;;;1.20;99.90;;;;;;5107374;27;20221;-75
2022/11/19 15:17:35;;;;;;;19.97;11.60;;;0.40;99.90;;;;;;5009919;27;20649;-73
2022/11/19 15:20:28;;;;;;;19.23;12.63;;;0.30;99.90;;;;;;5013397;28;20254;-73
2022/11/19 15:23:23;;;;;;;21.23;13.40;;;0.30;99.90;;;;;;5027401;28;20229;-73
2022/11/19 15:26:21;;;;;;;24.70;13.97;;;0.30;99.90;;;;;;5013389;28;20312;-73
2022/11/19 15:29:18;;;;;;;23.37;14.67;;;0.20;99.90;;;;;;5013025;28;20323;-74
2022/11/19 15:32:20;;;;;;;24.10;14.10;;;0.30;99.90;;;;;;5009358;28;20226;-73
2022/11/19 15:35:54;;;;;;;24.97;15.17;;;0.30;99.90;;;;;;5009614;28;20225;-73
2022/11/19 15:38:48;;;;;;;26.30;15.10;;;0.20;99.90;;;;;;5013248;28;20241;-73
2022/11/19 15:41:41;;;;;;;25.07;14.37;;;0.10;99.90;;;;;;5010059;28;20221;-70
2022/11/19 15:44:37;;;;;;;24.23;14.97;;;0.30;99.90;;;;;;5004562;28;20229;-72
2022/11/19 15:47:37;;;;;;;22.10;14.60;;;0.30;99.90;;;;;;5007950;28;20287;-73
2022/11/19 15:50:27;;;;;;;23.10;13.63;;;0.20;99.90;;;;;;5006980;28;20265;-73
2022/11/19 15:53:18;;;;;;;19.80;13.77;;;0.10;99.90;;;;;;5012318;28;20248;-72
2022/11/19 15:56:11;;;;;;;24.20;14.27;;;0.00;99.90;;;;;;5014842;28;20723;-70
2022/11/19 15:59:02;;;;;;;24.47;13.50;;;0.00;99.90;;;;;;5013024;28;20225;-71
2022/11/19 16:01:59;;;;;;;24.47;14.80;;;0.00;99.90;;;;;;5016366;28;20225;-75
2022/11/19 16:04:49;;;;;;;23.93;13.80;;;0.00;99.90;;;;;;5011751;28;20222;-75
2022/11/19 16:07:40;;;;;;;25.27;13.63;;;0.00;99.90;;;;;;5009460;28;20724;-73
2022/11/19 16:10:31;;;;;;;26.73;14.43;;;-0.10;99.90;;;;;;5008513;28;20234;-75
2022/11/19 16:19:35;;;;;;;25.47;15.17;;;-0.10;99.90;;;;;;5026475;28;20228;-72
2022/11/19 16:22:24;;;;;;;27.00;14.67;;;-0.10;99.90;;;;;;5044938;28;20216;-75
2022/11/19 16:25:19;;;;;;;24.43;15.20;;;0.00;99.90;;;;;;5032231;28;20236;-74
2022/11/19 16:28:11;;;;;;;28.60;16.27;;;-0.10;99.90;;;;;;5022687;28;20233;-73
2022/11/19 16:31:01;;;;;;;25.77;16.00;;;-0.20;99.90;;;;;;5017604;28;20224;-72
2022/11/19 16:33:54;;;;;;;25.27;15.67;;;-0.10;99.90;;;;;;5036629;28;20216;-70
2022/11/19 16:36:47;;;;;;;27.73;15.73;;;-0.10;99.90;;;;;;5021454;28;20247;-74
2022/11/19 16:39:35;;;;;;;25.90;15.40;;;-0.10;99.90;;;;;;5036125;28;20464;-71
2022/11/19 16:42:27;;;;;;;22.97;14.97;;;-0.10;99.90;;;;;;5023197;28;20243;-73
2022/11/19 16:45:21;;;;;;;28.07;15.30;;;0.00;99.90;;;;;;5022515;28;20252;-73
2022/11/19 16:48:43;;;;;;;29.23;16.80;;;0.00;99.90;;;;;;5036747;28;20725;-72
2022/11/19 16:51:38;;;;;;;29.83;16.83;;;0.00;99.90;;;;;;5034121;28;20229;-73
2022/11/19 16:54:47;;;;;;;29.83;16.60;;;-0.20;99.90;;;;;;5013157;28;20232;-72
2022/11/19 16:57:37;;;;;;;30.87;17.23;;;-0.10;99.90;;;;;;5039358;28;20240;-72
2022/11/19 17:00:30;;;;;;;29.97;17.77;;;-0.20;99.90;;;;;;5045674;28;20256;-70
2022/11/19 17:03:33;;;;;;;29.27;16.33;;;-0.10;99.90;;;;;;5040536;28;20304;-72
2022/11/19 17:06:24;;;;;;;33.07;17.77;;;-0.20;99.90;;;;;;5039891;28;20324;-71
2022/11/19 17:09:32;;;;;;;27.67;16.87;;;-0.30;99.90;;;;;;5040725;28;20684;-72
2022/11/19 17:12:26;;;;;;;30.93;18.23;;;-0.30;99.90;;;;;;5036700;28;20285;-73
2022/11/19 17:15:37;;;;;;;36.33;17.93;;;-0.20;99.90;;;;;;5040468;28;20235;-73
2022/11/19 17:18:30;;;;;;;32.30;17.90;;;-0.20;99.90;;;;;;5033681;28;20975;-73
2022/11/19 17:21:25;;;;;;;31.73;18.43;;;-0.10;99.90;;;;;;5038616;28;20225;-73
2022/11/19 17:24:16;;;;;;;30.03;16.90;;;-0.10;99.90;;;;;;5033990;28;20798;-73
2022/11/19 17:27:22;;;;;;;31.03;17.47;;;0.00;99.90;;;;;;5037242;28;20247;-73
2022/11/19 17:30:20;;;;;;;28.77;17.47;;;0.10;99.90;;;;;;5040782;28;20220;-73
2022/11/19 17:33:16;;;;;;;33.10;17.93;;;-0.10;99.90;;;;;;5040946;28;20220;-73
2022/11/19 17:36:13;;;;;;;29.13;16.97;;;0.00;99.90;;;;;;5038349;28;20225;-73
2022/11/19 17:39:01;;;;;;;29.93;18.00;;;0.00;99.90;;;;;;5040768;28;20221;-72
2022/11/19 17:44:59;;;;;;;29.47;17.03;;;0.00;99.90;;;;;;5040898;28;20392;-75
2022/11/19 17:47:53;;;;;;;30.87;17.47;;;0.00;99.90;;;;;;5040675;28;20224;-73
2022/11/19 17:50:43;;;;;;;31.27;17.70;;;-0.20;99.90;;;;;;5045923;28;20325;-73
2022/11/19 17:53:31;;;;;;;31.33;17.70;;;-0.10;99.90;;;;;;5038113;28;20227;-74
2022/11/19 17:56:22;;;;;;;32.13;18.27;;;-0.10;99.90;;;;;;5031597;28;20256;-73
2022/11/19 17:59:10;;;;;;;32.00;18.90;;;-0.20;99.90;;;;;;5037333;28;20793;-74
2022/11/19 18:01:58;;;;;;;30.30;18.33;;;-0.20;99.90;;;;;;5047225;28;20323;-74
2022/11/19 18:04:48;;;;;;;32.07;18.00;;;-0.10;99.90;;;;;;5046212;28;20781;-74
2022/11/19 18:07:38;;;;;;;33.47;18.03;;;0.00;99.90;;;;;;5027017;28;20235;-74
2022/11/19 18:10:27;;;;;;;34.20;18.37;;;0.00;99.90;;;;;;5019962;28;20226;-74
2022/11/19 18:13:19;;;;;;;30.40;18.40;;;0.00;99.90;;;;;;5021778;28;20259;-73
2022/11/19 18:16:14;;;;;;;29.47;18.60;;;0.10;99.90;;;;;;5022408;28;20245;-74
2022/11/19 18:19:09;;;;;;;32.77;18.50;;;0.20;99.90;;;;;;5014896;28;20226;-74
2022/11/19 18:21:58;;;;;;;30.57;18.07;;;0.20;99.90;;;;;;5030658;28;20241;-73
2022/11/19 18:24:50;;;;;;;30.83;16.97;;;0.30;99.90;;;;;;5014948;28;20261;-74
2022/11/19 18:27:38;;;;;;;29.90;17.83;;;0.30;99.90;;;;;;5014918;28;20229;-75
2022/11/19 18:30:27;;;;;;;29.90;17.57;;;0.20;99.90;;;;;;5015436;28;20230;-75
2022/11/19 18:33:15;;;;;;;32.80;19.20;;;0.00;99.90;;;;;;5015347;28;20236;-75
2022/11/19 18:36:04;;;;;;;30.90;19.07;;;0.10;99.90;;;;;;5019822;28;20233;-74
2022/11/19 18:38:54;;;;;;;32.13;19.27;;;0.20;99.90;;;;;;5015972;28;20225;-74
2022/11/19 18:41:44;;;;;;;36.27;20.47;;;0.10;99.90;;;;;;5012561;28;20217;-75
2022/11/19 18:44:32;;;;;;;36.03;20.23;;;0.00;99.90;;;;;;5016591;28;20331;-74
2022/11/19 18:47:23;;;;;;;35.93;20.17;;;-0.10;99.90;;;;;;5027731;28;20221;-74
2022/11/19 18:50:12;;;;;;;38.40;20.17;;;0.00;99.90;;;;;;5011243;28;20260;-74
2022/11/19 18:53:01;;;;;;;34.77;20.23;;;0.00;99.90;;;;;;5031571;28;20237;-74
2022/11/19 18:55:49;;;;;;;34.87;20.20;;;0.00;99.90;;;;;;5018278;28;20229;-75
2022/11/19 18:58:39;;;;;;;30.63;19.00;;;0.00;99.90;;;;;;5020808;28;20232;-74
2022/11/19 19:01:28;;;;;;;35.93;20.17;;;0.10;99.90;;;;;;5015328;28;20221;-75
2022/11/19 19:04:17;;;;;;;32.27;18.63;;;0.20;99.90;;;;;;5017322;28;20232;-74
2022/11/19 19:07:05;;;;;;;31.67;18.87;;;0.10;99.90;;;;;;5015333;28;20256;-74
2022/11/19 19:09:54;;;;;;;37.10;20.57;;;0.10;99.90;;;;;;5009707;28;20248;-74
2022/11/19 19:12:43;;;;;;;34.33;19.40;;;-0.10;99.90;;;;;;4993260;28;20225;-74
2022/11/19 19:15:33;;;;;;;36.50;20.33;;;0.00;99.90;;;;;;5015578;28;20233;-75
2022/11/19 19:18:21;;;;;;;33.97;19.63;;;0.00;99.90;;;;;;5030390;28;20233;-74
2022/11/19 19:21:13;;;;;;;35.60;19.80;;;-0.10;99.90;;;;;;5034405;28;20239;-74
2022/11/19 19:24:04;;;;;;;35.70;19.53;;;0.00;99.90;;;;;;5031623;28;20224;-74
2022/11/19 19:26:52;;;;;;;33.90;19.60;;;0.00;99.90;;;;;;5044667;28;20240;-75
2022/11/19 19:29:42;;;;;;;31.87;19.23;;;0.10;99.90;;;;;;5037267;28;20744;-72
2022/11/19 19:32:32;;;;;;;33.87;19.80;;;-0.10;99.90;;;;;;5031915;28;20229;-72
2022/11/19 19:35:20;;;;;;;34.70;19.20;;;-0.20;99.90;;;;;;5032027;28;20217;-73
2022/11/19 19:38:09;;;;;;;34.73;18.27;;;0.00;99.90;;;;;;5033594;28;20244;-73
2022/11/19 19:41:03;;;;;;;29.90;18.37;;;0.10;99.90;;;;;;5029860;28;20359;-73
2022/11/19 19:43:56;;;;;;;31.37;19.30;;;0.10;99.90;;;;;;5038242;28;20762;-72
2022/11/19 19:46:47;;;;;;;36.73;19.67;;;0.20;99.90;;;;;;5034728;28;20286;-74
2022/11/19 19:49:37;;;;;;;34.57;19.90;;;0.20;99.90;;;;;;5039775;28;20225;-72
2022/11/19 19:52:26;;;;;;;36.00;19.77;;;0.00;99.90;;;;;;5036760;28;20681;-73
2022/11/19 19:55:15;;;;;;;35.97;20.80;;;-0.10;99.90;;;;;;5037287;28;20569;-73
2022/11/19 19:58:06;;;;;;;37.47;21.77;;;0.00;99.90;;;;;;5040924;28;20225;-72
2022/11/19 20:00:54;;;;;;;37.33;21.27;;;0.00;99.90;;;;;;5039675;28;20260;-73
2022/11/19 20:03:44;;;;;;;36.87;21.37;;;0.00;99.90;;;;;;5046967;28;20216;-74
2022/11/19 20:06:43;;;;;;;37.57;22.43;;;0.00;99.90;;;;;;5041890;28;20888;-71
2022/11/19 20:09:32;;;;;;;39.03;22.57;;;0.00;99.90;;;;;;5038510;28;20564;-74
2022/11/19 20:12:20;;;;;;;41.23;23.27;;;-0.10;99.90;;;;;;5036864;28;20221;-71
2022/11/19 20:15:10;;;;;;;44.10;24.67;;;0.00;99.90;;;;;;5054906;28;20236;-73
2022/11/19 20:17:58;;;;;;;46.07;25.63;;;-0.10;99.90;;;;;;5038764;28;20788;-73
2022/11/19 20:20:47;;;;;;;45.90;26.50;;;-0.10;99.90;;;;;;5041313;28;20745;-75
2022/11/19 20:23:39;;;;;;;48.53;27.30;;;-0.30;99.90;;;;;;5043427;28;20267;-74
2022/11/19 20:26:30;;;;;;;51.77;26.53;;;-0.10;99.90;;;;;;5040485;28;20860;-74
2022/11/19 20:29:20;;;;;;;52.17;27.87;;;-0.20;99.90;;;;;;5041949;28;20228;-73
2022/11/19 20:32:09;;;;;;;52.63;28.97;;;-0.30;99.90;;;;;;5039110;28;20231;-74
2022/11/19 20:34:58;;;;;;;54.90;30.03;;;-0.20;99.90;;;;;;5042670;28;20706;-73
2022/11/19 20:37:47;;;;;;;57.10;29.73;;;-0.50;99.90;;;;;;5042150;28;20224;-73
2022/11/19 20:40:37;;;;;;;54.77;31.10;;;-0.50;99.90;;;;;;5041292;28;20225;-73